sensor_id;sensor_type;location;lat;lon;timestamp;P1;durP1;ratioP1;P2;durP2;ratioP2
39524;SDS011;25203;50.754;6.978;2023-05-10T00:00:18;9.88;;;4.45;;
39524;SDS011;25203;50.754;6.978;2023-05-10T00:02:20;8.77;;;4.85;;
39524;SDS011;25203;50.754;6.978;2023-05-10T00:04:20;9.70;;;4.95;;
39524;SDS011;25203;50.754;6.978;2023-05-10T00:06:21;9.25;;;5.35;;
39524;SDS011;25203;50.754;6.978;2023-05-10T00:08:22;10.40;;;5.30;;
39524;SDS011;25203;50.754;6.978;2023-05-10T00:10:22;8.80;;;5.07;;
39524;SDS011;25203;50.754;6.978;2023-05-10T00:12:23;12.70;;;5.80;;
39524;SDS011;25203;50.754;6.978;2023-05-10T00:14:23;11.40;;;6.00;;
39524;SDS011;25203;50.754;6.978;2023-05-10T00:16:24;12.85;;;5.72;;
39524;SDS011;25203;50.754;6.978;2023-05-10T00:18:25;11.52;;;6.93;;
39524;SDS011;25203;50.754;6.978;2023-05-10T00:20:26;13.57;;;7.13;;
39524;SDS011;25203;50.754;6.978;2023-05-10T00:22:26;11.98;;;6.68;;
39524;SDS011;25203;50.754;6.978;2023-05-10T00:24:27;13.25;;;6.95;;
39524;SDS011;25203;50.754;6.978;2023-05-10T00:26:27;10.18;;;6.53;;
39524;SDS011;25203;50.754;6.978;2023-05-10T00:28:28;15.05;;;6.63;;
39524;SDS011;25203;50.754;6.978;2023-05-10T00:30:29;12.02;;;6.72;;
39524;SDS011;25203;50.754;6.978;2023-05-10T00:32:30;13.07;;;6.50;;
39524;SDS011;25203;50.754;6.978;2023-05-10T00:34:30;11.55;;;7.00;;
39524;SDS011;25203;50.754;6.978;2023-05-10T00:36:31;12.95;;;6.10;;
39524;SDS011;25203;50.754;6.978;2023-05-10T00:38:31;9.55;;;5.30;;
39524;SDS011;25203;50.754;6.978;2023-05-10T00:40:32;12.98;;;5.80;;
39524;SDS011;25203;50.754;6.978;2023-05-10T00:42:33;11.38;;;5.75;;
39524;SDS011;25203;50.754;6.978;2023-05-10T00:44:33;10.60;;;5.93;;
39524;SDS011;25203;50.754;6.978;2023-05-10T00:46:34;11.82;;;5.90;;
39524;SDS011;25203;50.754;6.978;2023-05-10T00:48:35;9.18;;;5.78;;
39524;SDS011;25203;50.754;6.978;2023-05-10T00:50:36;12.35;;;5.50;;
39524;SDS011;25203;50.754;6.978;2023-05-10T00:52:38;14.70;;;5.78;;
39524;SDS011;25203;50.754;6.978;2023-05-10T00:54:39;9.77;;;4.75;;
39524;SDS011;25203;50.754;6.978;2023-05-10T00:56:40;8.35;;;4.53;;
39524;SDS011;25203;50.754;6.978;2023-05-10T00:58:41;9.07;;;4.63;;
39524;SDS011;25203;50.754;6.978;2023-05-10T01:00:42;10.63;;;4.88;;
39524;SDS011;25203;50.754;6.978;2023-05-10T01:02:46;6.75;;;4.00;;
39524;SDS011;25203;50.754;6.978;2023-05-10T01:04:47;6.38;;;4.35;;
39524;SDS011;25203;50.754;6.978;2023-05-10T01:06:49;7.55;;;3.92;;
39524;SDS011;25203;50.754;6.978;2023-05-10T01:08:49;5.28;;;3.95;;
39524;SDS011;25203;50.754;6.978;2023-05-10T01:10:50;6.22;;;3.63;;
39524;SDS011;25203;50.754;6.978;2023-05-10T01:12:52;5.18;;;3.45;;
39524;SDS011;25203;50.754;6.978;2023-05-10T01:14:53;9.00;;;4.20;;
39524;SDS011;25203;50.754;6.978;2023-05-10T01:16:54;5.57;;;3.50;;
39524;SDS011;25203;50.754;6.978;2023-05-10T01:18:55;4.38;;;3.80;;
39524;SDS011;25203;50.754;6.978;2023-05-10T01:21:17;8.07;;;3.85;;
39524;SDS011;25203;50.754;6.978;2023-05-10T01:28:28;7.68;;;4.75;;
39524;SDS011;25203;50.754;6.978;2023-05-10T01:33:16;6.38;;;4.47;;
39524;SDS011;25203;50.754;6.978;2023-05-10T01:37:52;7.80;;;4.60;;
39524;SDS011;25203;50.754;6.978;2023-05-10T01:40:15;8.80;;;5.28;;
39524;SDS011;25203;50.754;6.978;2023-05-10T01:42:21;8.20;;;4.82;;
39524;SDS011;25203;50.754;6.978;2023-05-10T01:47:07;8.43;;;4.65;;
39524;SDS011;25203;50.754;6.978;2023-05-10T01:49:20;6.15;;;5.13;;
39524;SDS011;25203;50.754;6.978;2023-05-10T01:51:27;9.80;;;5.10;;
39524;SDS011;25203;50.754;6.978;2023-05-10T01:53:31;5.70;;;4.22;;
39524;SDS011;25203;50.754;6.978;2023-05-10T01:55:35;12.90;;;4.57;;
39524;SDS011;25203;50.754;6.978;2023-05-10T01:57:42;9.93;;;4.97;;
39524;SDS011;25203;50.754;6.978;2023-05-10T01:59:46;6.70;;;4.55;;
39524;SDS011;25203;50.754;6.978;2023-05-10T02:01:50;6.88;;;4.50;;
39524;SDS011;25203;50.754;6.978;2023-05-10T02:03:52;7.97;;;4.63;;
39524;SDS011;25203;50.754;6.978;2023-05-10T02:05:54;9.77;;;4.85;;
39524;SDS011;25203;50.754;6.978;2023-05-10T02:07:57;9.85;;;5.43;;
39524;SDS011;25203;50.754;6.978;2023-05-10T02:10:01;10.45;;;6.13;;
39524;SDS011;25203;50.754;6.978;2023-05-10T02:12:05;11.30;;;6.47;;
39524;SDS011;25203;50.754;6.978;2023-05-10T02:14:08;11.43;;;6.72;;
39524;SDS011;25203;50.754;6.978;2023-05-10T02:16:11;13.43;;;7.20;;
39524;SDS011;25203;50.754;6.978;2023-05-10T02:18:13;9.75;;;6.10;;
39524;SDS011;25203;50.754;6.978;2023-05-10T02:20:15;11.95;;;7.60;;
39524;SDS011;25203;50.754;6.978;2023-05-10T02:22:18;14.68;;;8.10;;
39524;SDS011;25203;50.754;6.978;2023-05-10T02:24:20;15.10;;;8.77;;
39524;SDS011;25203;50.754;6.978;2023-05-10T02:26:23;17.58;;;10.02;;
39524;SDS011;25203;50.754;6.978;2023-05-10T02:28:25;25.17;;;12.93;;
39524;SDS011;25203;50.754;6.978;2023-05-10T02:30:28;28.15;;;14.35;;
39524;SDS011;25203;50.754;6.978;2023-05-10T02:32:30;25.20;;;13.88;;
39524;SDS011;25203;50.754;6.978;2023-05-10T02:34:31;28.67;;;14.45;;
39524;SDS011;25203;50.754;6.978;2023-05-10T02:36:32;24.45;;;13.02;;
39524;SDS011;25203;50.754;6.978;2023-05-10T02:38:33;23.92;;;12.43;;
39524;SDS011;25203;50.754;6.978;2023-05-10T02:40:35;20.35;;;10.80;;
39524;SDS011;25203;50.754;6.978;2023-05-10T02:42:37;16.15;;;9.68;;
39524;SDS011;25203;50.754;6.978;2023-05-10T02:44:42;18.95;;;9.15;;
39524;SDS011;25203;50.754;6.978;2023-05-10T02:46:45;14.30;;;8.55;;
39524;SDS011;25203;50.754;6.978;2023-05-10T02:48:46;13.35;;;7.50;;
39524;SDS011;25203;50.754;6.978;2023-05-10T02:50:47;11.05;;;7.20;;
39524;SDS011;25203;50.754;6.978;2023-05-10T02:52:51;11.85;;;6.53;;
39524;SDS011;25203;50.754;6.978;2023-05-10T02:54:58;12.88;;;7.43;;
39524;SDS011;25203;50.754;6.978;2023-05-10T02:57:03;21.25;;;10.05;;
39524;SDS011;25203;50.754;6.978;2023-05-10T02:59:05;14.82;;;8.70;;
39524;SDS011;25203;50.754;6.978;2023-05-10T03:01:06;14.20;;;8.00;;
39524;SDS011;25203;50.754;6.978;2023-05-10T03:03:07;15.02;;;7.93;;
39524;SDS011;25203;50.754;6.978;2023-05-10T03:05:08;19.88;;;7.78;;
39524;SDS011;25203;50.754;6.978;2023-05-10T03:07:08;13.45;;;7.72;;
39524;SDS011;25203;50.754;6.978;2023-05-10T03:09:09;16.55;;;9.18;;
39524;SDS011;25203;50.754;6.978;2023-05-10T03:16:20;21.92;;;11.55;;
39524;SDS011;25203;50.754;6.978;2023-05-10T03:20:46;25.45;;;13.02;;
39524;SDS011;25203;50.754;6.978;2023-05-10T03:22:49;30.17;;;13.88;;
39524;SDS011;25203;50.754;6.978;2023-05-10T03:24:53;40.67;;;17.30;;
39524;SDS011;25203;50.754;6.978;2023-05-10T03:26:58;44.85;;;18.48;;
39524;SDS011;25203;50.754;6.978;2023-05-10T03:29:02;45.85;;;18.35;;
39524;SDS011;25203;50.754;6.978;2023-05-10T03:31:04;38.53;;;18.33;;
39524;SDS011;25203;50.754;6.978;2023-05-10T03:33:06;55.92;;;21.08;;
39524;SDS011;25203;50.754;6.978;2023-05-10T03:35:07;46.38;;;20.45;;
39524;SDS011;25203;50.754;6.978;2023-05-10T03:37:09;50.65;;;22.00;;
39524;SDS011;25203;50.754;6.978;2023-05-10T03:39:09;54.13;;;24.48;;
39524;SDS011;25203;50.754;6.978;2023-05-10T03:41:10;54.03;;;23.55;;
39524;SDS011;25203;50.754;6.978;2023-05-10T03:43:11;54.83;;;22.63;;
39524;SDS011;25203;50.754;6.978;2023-05-10T03:45:11;57.95;;;24.05;;
39524;SDS011;25203;50.754;6.978;2023-05-10T03:47:12;52.72;;;23.00;;
39524;SDS011;25203;50.754;6.978;2023-05-10T03:49:13;52.53;;;23.88;;
39524;SDS011;25203;50.754;6.978;2023-05-10T03:51:13;62.25;;;25.48;;
39524;SDS011;25203;50.754;6.978;2023-05-10T03:53:14;63.10;;;24.88;;
39524;SDS011;25203;50.754;6.978;2023-05-10T03:55:15;64.90;;;27.25;;
39524;SDS011;25203;50.754;6.978;2023-05-10T03:57:16;64.88;;;28.42;;
39524;SDS011;25203;50.754;6.978;2023-05-10T03:59:17;73.28;;;29.27;;
39524;SDS011;25203;50.754;6.978;2023-05-10T04:01:17;74.10;;;30.50;;
39524;SDS011;25203;50.754;6.978;2023-05-10T04:03:18;74.57;;;29.65;;
39524;SDS011;25203;50.754;6.978;2023-05-10T04:05:20;76.40;;;30.70;;
39524;SDS011;25203;50.754;6.978;2023-05-10T04:07:20;86.30;;;31.10;;
39524;SDS011;25203;50.754;6.978;2023-05-10T04:09:21;75.47;;;31.55;;
39524;SDS011;25203;50.754;6.978;2023-05-10T04:11:21;75.15;;;30.92;;
39524;SDS011;25203;50.754;6.978;2023-05-10T04:13:22;73.63;;;31.63;;
39524;SDS011;25203;50.754;6.978;2023-05-10T04:15:23;81.57;;;32.65;;
39524;SDS011;25203;50.754;6.978;2023-05-10T04:17:23;87.60;;;35.80;;
39524;SDS011;25203;50.754;6.978;2023-05-10T04:19:28;81.10;;;35.38;;
39524;SDS011;25203;50.754;6.978;2023-05-10T04:21:30;92.80;;;37.15;;
39524;SDS011;25203;50.754;6.978;2023-05-10T04:23:30;90.72;;;38.15;;
39524;SDS011;25203;50.754;6.978;2023-05-10T04:25:33;91.10;;;37.58;;
39524;SDS011;25203;50.754;6.978;2023-05-10T04:27:35;85.18;;;37.90;;
39524;SDS011;25203;50.754;6.978;2023-05-10T04:29:36;93.82;;;40.55;;
39524;SDS011;25203;50.754;6.978;2023-05-10T04:31:36;97.38;;;40.13;;
39524;SDS011;25203;50.754;6.978;2023-05-10T04:33:37;90.35;;;39.33;;
39524;SDS011;25203;50.754;6.978;2023-05-10T04:35:38;101.35;;;41.42;;
39524;SDS011;25203;50.754;6.978;2023-05-10T04:37:39;100.45;;;41.15;;
39524;SDS011;25203;50.754;6.978;2023-05-10T04:39:40;88.30;;;40.47;;
39524;SDS011;25203;50.754;6.978;2023-05-10T04:41:41;89.72;;;40.38;;
39524;SDS011;25203;50.754;6.978;2023-05-10T04:43:41;93.18;;;41.28;;
39524;SDS011;25203;50.754;6.978;2023-05-10T04:45:42;96.68;;;40.83;;
39524;SDS011;25203;50.754;6.978;2023-05-10T04:47:42;104.78;;;40.72;;
39524;SDS011;25203;50.754;6.978;2023-05-10T04:49:43;90.03;;;39.50;;
39524;SDS011;25203;50.754;6.978;2023-05-10T04:51:43;83.90;;;37.28;;
39524;SDS011;25203;50.754;6.978;2023-05-10T04:53:44;72.47;;;36.10;;
39524;SDS011;25203;50.754;6.978;2023-05-10T04:55:45;93.05;;;39.20;;
39524;SDS011;25203;50.754;6.978;2023-05-10T04:57:46;82.25;;;37.28;;
39524;SDS011;25203;50.754;6.978;2023-05-10T04:59:47;75.45;;;35.28;;
39524;SDS011;25203;50.754;6.978;2023-05-10T05:01:47;86.68;;;38.17;;
39524;SDS011;25203;50.754;6.978;2023-05-10T05:03:48;85.13;;;37.92;;
39524;SDS011;25203;50.754;6.978;2023-05-10T05:05:49;73.53;;;37.55;;
39524;SDS011;25203;50.754;6.978;2023-05-10T05:07:49;73.72;;;36.00;;
39524;SDS011;25203;50.754;6.978;2023-05-10T05:09:50;70.00;;;34.88;;
39524;SDS011;25203;50.754;6.978;2023-05-10T05:11:51;68.10;;;35.67;;
39524;SDS011;25203;50.754;6.978;2023-05-10T05:13:51;65.85;;;33.17;;
39524;SDS011;25203;50.754;6.978;2023-05-10T05:15:52;60.72;;;32.67;;
39524;SDS011;25203;50.754;6.978;2023-05-10T05:17:53;60.67;;;34.30;;
39524;SDS011;25203;50.754;6.978;2023-05-10T05:19:53;54.17;;;33.45;;
39524;SDS011;25203;50.754;6.978;2023-05-10T05:21:54;51.42;;;31.65;;
39524;SDS011;25203;50.754;6.978;2023-05-10T05:23:55;52.03;;;30.23;;
39524;SDS011;25203;50.754;6.978;2023-05-10T05:25:55;47.00;;;31.65;;
39524;SDS011;25203;50.754;6.978;2023-05-10T05:27:56;49.60;;;30.77;;
39524;SDS011;25203;50.754;6.978;2023-05-10T05:29:57;41.17;;;29.13;;
39524;SDS011;25203;50.754;6.978;2023-05-10T05:31:58;45.05;;;30.00;;
39524;SDS011;25203;50.754;6.978;2023-05-10T05:33:58;46.90;;;29.05;;
39524;SDS011;25203;50.754;6.978;2023-05-10T05:36:03;43.60;;;28.13;;
39524;SDS011;25203;50.754;6.978;2023-05-10T05:38:04;38.95;;;27.08;;
39524;SDS011;25203;50.754;6.978;2023-05-10T05:40:06;37.42;;;26.63;;
39524;SDS011;25203;50.754;6.978;2023-05-10T05:42:07;40.88;;;24.50;;
39524;SDS011;25203;50.754;6.978;2023-05-10T05:44:08;36.00;;;25.70;;
39524;SDS011;25203;50.754;6.978;2023-05-10T05:46:08;34.72;;;25.00;;
39524;SDS011;25203;50.754;6.978;2023-05-10T05:48:09;33.22;;;23.50;;
39524;SDS011;25203;50.754;6.978;2023-05-10T05:50:10;38.70;;;22.80;;
39524;SDS011;25203;50.754;6.978;2023-05-10T05:52:11;26.67;;;19.80;;
39524;SDS011;25203;50.754;6.978;2023-05-10T05:54:11;24.63;;;18.73;;
39524;SDS011;25203;50.754;6.978;2023-05-10T05:56:12;25.88;;;18.85;;
39524;SDS011;25203;50.754;6.978;2023-05-10T05:58:13;25.42;;;18.35;;
39524;SDS011;25203;50.754;6.978;2023-05-10T06:00:13;23.00;;;16.98;;
39524;SDS011;25203;50.754;6.978;2023-05-10T06:02:14;18.75;;;14.68;;
39524;SDS011;25203;50.754;6.978;2023-05-10T06:04:15;21.40;;;14.15;;
39524;SDS011;25203;50.754;6.978;2023-05-10T06:06:15;18.30;;;13.68;;
39524;SDS011;25203;50.754;6.978;2023-05-10T06:08:16;19.67;;;14.32;;
39524;SDS011;25203;50.754;6.978;2023-05-10T06:10:17;20.73;;;14.02;;
39524;SDS011;25203;50.754;6.978;2023-05-10T06:12:17;16.52;;;13.60;;
39524;SDS011;25203;50.754;6.978;2023-05-10T06:14:20;14.77;;;11.95;;
39524;SDS011;25203;50.754;6.978;2023-05-10T06:16:20;15.98;;;11.90;;
39524;SDS011;25203;50.754;6.978;2023-05-10T06:18:21;14.55;;;10.88;;
39524;SDS011;25203;50.754;6.978;2023-05-10T06:20:22;11.63;;;10.25;;
39524;SDS011;25203;50.754;6.978;2023-05-10T06:22:22;13.85;;;9.75;;
39524;SDS011;25203;50.754;6.978;2023-05-10T06:24:23;10.30;;;9.25;;
39524;SDS011;25203;50.754;6.978;2023-05-10T06:26:23;10.93;;;9.07;;
39524;SDS011;25203;50.754;6.978;2023-05-10T06:28:24;14.27;;;9.40;;
39524;SDS011;25203;50.754;6.978;2023-05-10T06:30:25;15.95;;;9.02;;
39524;SDS011;25203;50.754;6.978;2023-05-10T06:32:28;11.77;;;8.50;;
39524;SDS011;25203;50.754;6.978;2023-05-10T06:34:28;10.63;;;7.10;;
39524;SDS011;25203;50.754;6.978;2023-05-10T06:36:29;12.23;;;8.40;;
39524;SDS011;25203;50.754;6.978;2023-05-10T06:38:30;15.13;;;8.00;;
39524;SDS011;25203;50.754;6.978;2023-05-10T06:40:31;11.32;;;7.88;;
39524;SDS011;25203;50.754;6.978;2023-05-10T06:42:32;10.68;;;7.50;;
39524;SDS011;25203;50.754;6.978;2023-05-10T06:44:33;12.02;;;7.45;;
39524;SDS011;25203;50.754;6.978;2023-05-10T06:46:33;9.23;;;6.95;;
39524;SDS011;25203;50.754;6.978;2023-05-10T06:48:35;11.90;;;5.95;;
39524;SDS011;25203;50.754;6.978;2023-05-10T06:50:35;9.40;;;5.88;;
39524;SDS011;25203;50.754;6.978;2023-05-10T06:52:36;8.25;;;6.05;;
39524;SDS011;25203;50.754;6.978;2023-05-10T06:54:37;8.98;;;5.72;;
39524;SDS011;25203;50.754;6.978;2023-05-10T06:56:38;9.32;;;6.20;;
39524;SDS011;25203;50.754;6.978;2023-05-10T06:58:39;7.88;;;5.57;;
39524;SDS011;25203;50.754;6.978;2023-05-10T07:00:39;6.43;;;5.50;;
39524;SDS011;25203;50.754;6.978;2023-05-10T07:02:42;8.35;;;5.20;;
39524;SDS011;25203;50.754;6.978;2023-05-10T07:04:43;9.05;;;5.32;;
39524;SDS011;25203;50.754;6.978;2023-05-10T07:06:44;9.73;;;6.15;;
39524;SDS011;25203;50.754;6.978;2023-05-10T07:08:46;8.15;;;4.97;;
39524;SDS011;25203;50.754;6.978;2023-05-10T07:10:46;7.20;;;4.32;;
39524;SDS011;25203;50.754;6.978;2023-05-10T07:12:47;7.30;;;4.38;;
39524;SDS011;25203;50.754;6.978;2023-05-10T07:14:47;8.15;;;4.25;;
39524;SDS011;25203;50.754;6.978;2023-05-10T07:16:48;8.07;;;4.05;;
39524;SDS011;25203;50.754;6.978;2023-05-10T07:18:49;6.75;;;4.13;;
39524;SDS011;25203;50.754;6.978;2023-05-10T07:20:50;6.05;;;4.35;;
39524;SDS011;25203;50.754;6.978;2023-05-10T07:22:51;5.95;;;4.13;;
39524;SDS011;25203;50.754;6.978;2023-05-10T07:24:51;7.80;;;4.93;;
39524;SDS011;25203;50.754;6.978;2023-05-10T07:26:52;5.68;;;4.32;;
39524;SDS011;25203;50.754;6.978;2023-05-10T07:28:53;10.02;;;3.95;;
39524;SDS011;25203;50.754;6.978;2023-05-10T07:30:53;5.20;;;4.10;;
39524;SDS011;25203;50.754;6.978;2023-05-10T07:32:54;7.53;;;4.45;;
39524;SDS011;25203;50.754;6.978;2023-05-10T07:34:54;7.68;;;4.32;;
39524;SDS011;25203;50.754;6.978;2023-05-10T07:36:55;8.13;;;5.15;;
39524;SDS011;25203;50.754;6.978;2023-05-10T07:38:57;6.72;;;5.47;;
39524;SDS011;25203;50.754;6.978;2023-05-10T07:40:58;7.20;;;5.25;;
39524;SDS011;25203;50.754;6.978;2023-05-10T07:42:58;7.22;;;5.35;;
39524;SDS011;25203;50.754;6.978;2023-05-10T07:45:01;7.78;;;4.95;;
39524;SDS011;25203;50.754;6.978;2023-05-10T07:47:02;8.27;;;5.05;;
39524;SDS011;25203;50.754;6.978;2023-05-10T07:49:02;8.68;;;5.35;;
39524;SDS011;25203;50.754;6.978;2023-05-10T07:51:04;6.38;;;4.75;;
39524;SDS011;25203;50.754;6.978;2023-05-10T07:53:06;10.68;;;4.70;;
39524;SDS011;25203;50.754;6.978;2023-05-10T07:55:07;9.30;;;4.82;;
39524;SDS011;25203;50.754;6.978;2023-05-10T07:57:08;7.38;;;4.65;;
39524;SDS011;25203;50.754;6.978;2023-05-10T07:59:09;9.52;;;5.28;;
39524;SDS011;25203;50.754;6.978;2023-05-10T08:01:10;7.88;;;5.05;;
39524;SDS011;25203;50.754;6.978;2023-05-10T08:03:10;7.88;;;4.63;;
39524;SDS011;25203;50.754;6.978;2023-05-10T08:05:11;6.78;;;4.55;;
39524;SDS011;25203;50.754;6.978;2023-05-10T08:07:12;7.90;;;4.68;;
39524;SDS011;25203;50.754;6.978;2023-05-10T08:09:12;10.38;;;5.03;;
39524;SDS011;25203;50.754;6.978;2023-05-10T08:11:13;5.63;;;4.45;;
39524;SDS011;25203;50.754;6.978;2023-05-10T08:13:14;7.43;;;4.45;;
39524;SDS011;25203;50.754;6.978;2023-05-10T08:15:14;7.70;;;4.75;;
39524;SDS011;25203;50.754;6.978;2023-05-10T08:17:15;7.47;;;4.88;;
39524;SDS011;25203;50.754;6.978;2023-05-10T08:19:16;6.53;;;4.47;;
39524;SDS011;25203;50.754;6.978;2023-05-10T08:21:19;5.90;;;4.25;;
39524;SDS011;25203;50.754;6.978;2023-05-10T08:23:20;4.57;;;4.10;;
39524;SDS011;25203;50.754;6.978;2023-05-10T08:25:20;7.32;;;4.13;;
39524;SDS011;25203;50.754;6.978;2023-05-10T08:27:21;8.95;;;4.55;;
39524;SDS011;25203;50.754;6.978;2023-05-10T08:29:22;9.15;;;4.80;;
39524;SDS011;25203;50.754;6.978;2023-05-10T08:31:22;5.38;;;4.45;;
39524;SDS011;25203;50.754;6.978;2023-05-10T08:33:23;6.30;;;4.57;;
39524;SDS011;25203;50.754;6.978;2023-05-10T08:35:23;7.40;;;4.45;;
39524;SDS011;25203;50.754;6.978;2023-05-10T08:37:24;6.22;;;4.55;;
39524;SDS011;25203;50.754;6.978;2023-05-10T08:39:25;5.75;;;3.33;;
39524;SDS011;25203;50.754;6.978;2023-05-10T08:41:25;6.47;;;3.80;;
39524;SDS011;25203;50.754;6.978;2023-05-10T08:43:27;5.00;;;3.55;;
39524;SDS011;25203;50.754;6.978;2023-05-10T08:45:29;6.25;;;3.95;;
39524;SDS011;25203;50.754;6.978;2023-05-10T08:47:32;4.53;;;3.65;;
39524;SDS011;25203;50.754;6.978;2023-05-10T08:49:35;6.13;;;3.97;;
39524;SDS011;25203;50.754;6.978;2023-05-10T08:51:38;4.35;;;3.65;;
39524;SDS011;25203;50.754;6.978;2023-05-10T08:53:43;5.10;;;3.53;;
39524;SDS011;25203;50.754;6.978;2023-05-10T08:55:44;6.65;;;3.45;;
39524;SDS011;25203;50.754;6.978;2023-05-10T08:57:46;9.57;;;2.33;;
39524;SDS011;25203;50.754;6.978;2023-05-10T08:59:47;5.13;;;2.28;;
39524;SDS011;25203;50.754;6.978;2023-05-10T09:01:47;3.88;;;2.35;;
39524;SDS011;25203;50.754;6.978;2023-05-10T09:03:50;2.72;;;1.83;;
39524;SDS011;25203;50.754;6.978;2023-05-10T09:05:51;2.15;;;1.65;;
39524;SDS011;25203;50.754;6.978;2023-05-10T09:07:52;1.42;;;1.33;;
39524;SDS011;25203;50.754;6.978;2023-05-10T09:09:52;1.60;;;1.30;;
39524;SDS011;25203;50.754;6.978;2023-05-10T09:11:54;1.65;;;1.30;;
39524;SDS011;25203;50.754;6.978;2023-05-10T09:13:55;1.55;;;1.25;;
39524;SDS011;25203;50.754;6.978;2023-05-10T09:15:56;1.98;;;1.70;;
39524;SDS011;25203;50.754;6.978;2023-05-10T09:17:57;3.13;;;1.63;;
39524;SDS011;25203;50.754;6.978;2023-05-10T09:19:59;4.07;;;1.45;;
39524;SDS011;25203;50.754;6.978;2023-05-10T09:22:00;3.55;;;1.73;;
39524;SDS011;25203;50.754;6.978;2023-05-10T09:24:02;2.53;;;1.50;;
39524;SDS011;25203;50.754;6.978;2023-05-10T09:26:05;1.48;;;1.30;;
39524;SDS011;25203;50.754;6.978;2023-05-10T09:28:06;4.25;;;1.70;;
39524;SDS011;25203;50.754;6.978;2023-05-10T09:30:08;3.75;;;1.52;;
39524;SDS011;25203;50.754;6.978;2023-05-10T09:32:09;4.18;;;1.63;;
39524;SDS011;25203;50.754;6.978;2023-05-10T09:34:10;1.48;;;1.38;;
39524;SDS011;25203;50.754;6.978;2023-05-10T09:36:10;2.67;;;1.40;;
39524;SDS011;25203;50.754;6.978;2023-05-10T09:38:11;1.98;;;1.75;;
39524;SDS011;25203;50.754;6.978;2023-05-10T09:40:13;2.13;;;1.50;;
39524;SDS011;25203;50.754;6.978;2023-05-10T09:42:17;2.03;;;1.63;;
39524;SDS011;25203;50.754;6.978;2023-05-10T09:44:18;3.30;;;1.83;;
39524;SDS011;25203;50.754;6.978;2023-05-10T09:46:19;2.80;;;2.10;;
39524;SDS011;25203;50.754;6.978;2023-05-10T09:48:21;4.55;;;2.00;;
39524;SDS011;25203;50.754;6.978;2023-05-10T09:50:24;3.08;;;2.75;;
39524;SDS011;25203;50.754;6.978;2023-05-10T09:52:25;4.70;;;3.45;;
39524;SDS011;25203;50.754;6.978;2023-05-10T09:54:26;6.38;;;4.32;;
39524;SDS011;25203;50.754;6.978;2023-05-10T09:56:33;7.75;;;5.07;;
39524;SDS011;25203;50.754;6.978;2023-05-10T09:58:38;8.25;;;5.72;;
39524;SDS011;25203;50.754;6.978;2023-05-10T10:00:40;7.90;;;5.45;;
39524;SDS011;25203;50.754;6.978;2023-05-10T10:02:41;17.10;;;7.15;;
39524;SDS011;25203;50.754;6.978;2023-05-10T10:04:42;8.70;;;6.50;;
39524;SDS011;25203;50.754;6.978;2023-05-10T10:06:43;10.15;;;6.57;;
39524;SDS011;25203;50.754;6.978;2023-05-10T10:08:43;8.88;;;7.28;;
39524;SDS011;25203;50.754;6.978;2023-05-10T10:10:44;12.43;;;9.43;;
39524;SDS011;25203;50.754;6.978;2023-05-10T10:12:46;12.43;;;9.07;;
39524;SDS011;25203;50.754;6.978;2023-05-10T10:14:47;12.70;;;9.60;;
39524;SDS011;25203;50.754;6.978;2023-05-10T10:16:49;15.02;;;9.73;;
39524;SDS011;25203;50.754;6.978;2023-05-10T10:18:51;13.48;;;10.13;;
39524;SDS011;25203;50.754;6.978;2023-05-10T10:20:51;11.07;;;8.38;;
39524;SDS011;25203;50.754;6.978;2023-05-10T10:22:54;11.10;;;8.07;;
39524;SDS011;25203;50.754;6.978;2023-05-10T10:24:54;7.90;;;5.90;;
39524;SDS011;25203;50.754;6.978;2023-05-10T10:26:55;7.82;;;4.93;;
39524;SDS011;25203;50.754;6.978;2023-05-10T10:29:12;5.90;;;4.38;;
39524;SDS011;25203;50.754;6.978;2023-05-10T10:31:36;3.42;;;2.95;;
39524;SDS011;25203;50.754;6.978;2023-05-10T10:36:21;1.90;;;1.50;;
39524;SDS011;25203;50.754;6.978;2023-05-10T10:38:22;1.98;;;1.65;;
39524;SDS011;25203;50.754;6.978;2023-05-10T10:40:27;2.67;;;1.20;;
39524;SDS011;25203;50.754;6.978;2023-05-10T10:42:43;1.40;;;1.00;;
39524;SDS011;25203;50.754;6.978;2023-05-10T10:44:44;1.40;;;1.30;;
39524;SDS011;25203;50.754;6.978;2023-05-10T10:49:18;0.70;;;0.70;;
39524;SDS011;25203;50.754;6.978;2023-05-10T10:51:19;0.88;;;0.80;;
39524;SDS011;25203;50.754;6.978;2023-05-10T10:53:20;1.15;;;0.75;;
39524;SDS011;25203;50.754;6.978;2023-05-10T10:55:20;0.82;;;0.70;;
39524;SDS011;25203;50.754;6.978;2023-05-10T10:57:23;0.70;;;0.70;;
39524;SDS011;25203;50.754;6.978;2023-05-10T10:59:26;0.60;;;0.60;;
39524;SDS011;25203;50.754;6.978;2023-05-10T11:01:32;2.03;;;0.70;;
39524;SDS011;25203;50.754;6.978;2023-05-10T11:03:35;2.08;;;0.77;;
39524;SDS011;25203;50.754;6.978;2023-05-10T11:05:36;2.75;;;0.95;;
39524;SDS011;25203;50.754;6.978;2023-05-10T11:07:54;1.95;;;1.05;;
39524;SDS011;25203;50.754;6.978;2023-05-10T11:09:56;1.10;;;1.00;;
39524;SDS011;25203;50.754;6.978;2023-05-10T11:12:07;0.93;;;0.88;;
39524;SDS011;25203;50.754;6.978;2023-05-10T11:14:08;2.55;;;1.30;;
39524;SDS011;25203;50.754;6.978;2023-05-10T11:16:14;3.22;;;1.60;;
39524;SDS011;25203;50.754;6.978;2023-05-10T11:18:18;1.33;;;1.23;;
39524;SDS011;25203;50.754;6.978;2023-05-10T11:20:27;0.98;;;0.95;;
39524;SDS011;25203;50.754;6.978;2023-05-10T11:22:48;1.00;;;0.98;;
39524;SDS011;25203;50.754;6.978;2023-05-10T11:24:57;1.20;;;1.02;;
39524;SDS011;25203;50.754;6.978;2023-05-10T11:27:00;1.77;;;0.70;;
39524;SDS011;25203;50.754;6.978;2023-05-10T11:29:01;0.95;;;0.75;;
39524;SDS011;25203;50.754;6.978;2023-05-10T11:31:04;1.83;;;0.63;;
39524;SDS011;25203;50.754;6.978;2023-05-10T11:33:05;2.30;;;0.68;;
39524;SDS011;25203;50.754;6.978;2023-05-10T11:35:07;0.65;;;0.65;;
39524;SDS011;25203;50.754;6.978;2023-05-10T11:37:09;0.90;;;0.60;;
39524;SDS011;25203;50.754;6.978;2023-05-10T11:39:09;0.93;;;0.63;;
39524;SDS011;25203;50.754;6.978;2023-05-10T11:41:11;2.47;;;0.70;;
39524;SDS011;25203;50.754;6.978;2023-05-10T11:43:12;0.70;;;0.70;;
39524;SDS011;25203;50.754;6.978;2023-05-10T11:45:13;0.90;;;0.90;;
39524;SDS011;25203;50.754;6.978;2023-05-10T11:47:14;1.40;;;1.17;;
39524;SDS011;25203;50.754;6.978;2023-05-10T11:49:14;1.95;;;1.55;;
39524;SDS011;25203;50.754;6.978;2023-05-10T11:51:15;1.90;;;1.80;;
39524;SDS011;25203;50.754;6.978;2023-05-10T11:53:19;1.83;;;1.63;;
39524;SDS011;25203;50.754;6.978;2023-05-10T11:55:20;2.10;;;1.42;;
39524;SDS011;25203;50.754;6.978;2023-05-10T11:57:25;1.77;;;1.42;;
39524;SDS011;25203;50.754;6.978;2023-05-10T11:59:26;1.02;;;1.00;;
39524;SDS011;25203;50.754;6.978;2023-05-10T12:01:27;1.95;;;1.00;;
39524;SDS011;25203;50.754;6.978;2023-05-10T12:03:28;1.23;;;1.10;;
39524;SDS011;25203;50.754;6.978;2023-05-10T12:05:31;0.70;;;0.70;;
39524;SDS011;25203;50.754;6.978;2023-05-10T12:07:32;1.00;;;0.95;;
39524;SDS011;25203;50.754;6.978;2023-05-10T12:09:33;1.88;;;0.90;;
39524;SDS011;25203;50.754;6.978;2023-05-10T12:11:36;1.60;;;1.00;;
39524;SDS011;25203;50.754;6.978;2023-05-10T12:13:39;2.13;;;0.70;;
39524;SDS011;25203;50.754;6.978;2023-05-10T12:15:41;0.60;;;0.60;;
39524;SDS011;25203;50.754;6.978;2023-05-10T12:17:43;0.52;;;0.52;;
39524;SDS011;25203;50.754;6.978;2023-05-10T12:19:44;1.50;;;0.68;;
39524;SDS011;25203;50.754;6.978;2023-05-10T12:21:45;0.63;;;0.60;;
39524;SDS011;25203;50.754;6.978;2023-05-10T12:23:48;0.70;;;0.60;;
39524;SDS011;25203;50.754;6.978;2023-05-10T12:25:50;0.80;;;0.80;;
39524;SDS011;25203;50.754;6.978;2023-05-10T12:27:54;5.50;;;1.23;;
39524;SDS011;25203;50.754;6.978;2023-05-10T12:29:55;1.23;;;0.80;;
39524;SDS011;25203;50.754;6.978;2023-05-10T12:31:59;1.30;;;0.95;;